Welcome to Northern Hawkes Bay. New Zealand.
PWS Header
      nz Flag



Hit Counter


W3C Valid W3C Valid logo


    Wairoa

Select any of the Stations below to visit their websites.










Historic Data from Weather Underground
Select the location of interest below. Wairoa is the default. Please have patience, this Data is slow to load in.
Northern Hawkes Bay Historical Data
Daily Summary for July 3, 2017 Units:  English    Metric   Both
« Previous Day
Next Day »
Daily Weekly Monthly Yearly Custom
  High: Low: Average:
Temperature: 61.9 °F 47.7 °F 53.2 °F
Dew Point: 54.7 °F 47.5 °F 50 °F
Humidity: 99% 65% 90%
Wind Speed: 10.7mph 0mph 3.7mph
Wind Gust: 15.2mph - -
Wind- - WSW
Pressure: 29.8 in 29.6 in -
Precipitation: 0.09 in    
Historical Graphs
 
 
Tabular Data for July 3, 2017
Time Temperature Dew Point Pressure Wind Wind Speed Wind Gust Humidity Rainfall Rate (Hourly) solar
00:02 50.7 °F 50.5 °F 29.7 in NNW 1.6 mph 4.5 mph 99% 0 in 0 W/m2
00:07 50.7 °F 50.5 °F 29.7 in Calm   4.5 mph 99% 0 in 0 W/m2
00:12 50.7 °F 50.5 °F 29.7 in Calm   3.8 mph 99% 0 in 0 W/m2
00:17 50.5 °F 50.4 °F 29.7 in Calm   2.2 mph 99% 0 in 0 W/m2
00:22 50.4 °F 50.2 °F 29.7 in North 0.7 mph 2.2 mph 99% 0 in 0 W/m2
00:27 50.4 °F 50.2 °F 29.7 in North 1.6 mph 3.1 mph 99% 0 in 0 W/m2
00:32 50.2 °F 49.8 °F 29.7 in Calm   3.1 mph 99% 0 in 0 W/m2
00:37 50 °F 49.6 °F 29.7 in Calm   3.1 mph 99% 0 in 0 W/m2
00:42 49.8 °F 49.6 °F 29.7 in Calm   1.6 mph 99% 0 in 0 W/m2
00:47 49.8 °F 49.6 °F 29.7 in SE 0.7 mph 1.6 mph 99% 0 in 0 W/m2
00:52 49.6 °F 49.5 °F 29.7 in Calm   1.6 mph 99% 0 in 0 W/m2
00:57 49.5 °F 49.3 °F 29.7 in Calm   1.6 mph 99% 0.01 in 0 W/m2
01:02 49.5 °F 49.3 °F 29.7 in Calm   1.6 mph 99% 0.01 in 0 W/m2
01:07 49.3 °F 48.9 °F 29.7 in Calm   1.6 mph 99% 0.01 in 0 W/m2
01:12 49.3 °F 48.9 °F 29.7 in Calm   1.6 mph 99% 0.01 in 0 W/m2
01:17 49.5 °F 49.3 °F 29.7 in North 1.6 mph 3.1 mph 99% 0.01 in 0 W/m2
01:22 49.6 °F 49.5 °F 29.7 in North 3.8 mph 5.4 mph 99% 0.01 in 0 W/m2
01:27 49.8 °F 49.6 °F 29.7 in NNW 1.6 mph 5.4 mph 99% 0.01 in 0 W/m2
01:32 49.8 °F 49.6 °F 29.7 in NNW 1.6 mph 5.4 mph 99% 0.01 in 0 W/m2
01:37 50 °F 49.6 °F 29.7 in NNW 3.8 mph 5.4 mph 99% 0.01 in 0 W/m2
01:42 50 °F 49.6 °F 29.7 in NW 4.5 mph 6.9 mph 99% 0.01 in 0 W/m2
01:47 50 °F 49.6 °F 29.7 in NNW 3.1 mph 6.9 mph 99% 0.02 in 0 W/m2
01:52 50 °F 49.6 °F 29.7 in NNW 3.1 mph 6.9 mph 99% 0.04 in 0 W/m2
01:57 50 °F 49.6 °F 29.7 in North 3.1 mph 6.9 mph 99% 0.04 in 0 W/m2
02:02 50.2 °F 49.8 °F 29.7 in North 3.1 mph 6 mph 99% 0.04 in 0 W/m2
02:07 50.2 °F 49.8 °F 29.7 in NNE 1.6 mph 6 mph 99% 0.04 in 0 W/m2
02:12 50.2 °F 49.8 °F 29.7 in Calm   4.5 mph 99% 0.05 in 0 W/m2
02:17 50.2 °F 49.8 °F 29.6 in East 1.6 mph 3.1 mph 99% 0.06 in 0 W/m2
02:22 50 °F 49.6 °F 29.7 in Calm   3.1 mph 99% 0.06 in 0 W/m2
02:27 50 °F 49.6 °F 29.6 in West 2.2 mph 4.5 mph 99% 0.06 in 0 W/m2
02:32 50 °F 49.6 °F 29.7 in WNW 2.2 mph 4.5 mph 99% 0.06 in 0 W/m2
02:37 50 °F 49.6 °F 29.7 in WNW 2.2 mph 5.4 mph 99% 0.06 in 0 W/m2
02:47 49.8 °F 49.6 °F 29.7 in NNW 2.2 mph 3.8 mph 99% 0.05 in 0 W/m2
02:52 49.6 °F 49.5 °F 29.7 in North 1.6 mph 3.8 mph 99% 0.04 in 0 W/m2
02:57 49.5 °F 49.3 °F 29.6 in NNW 0.7 mph 3.8 mph 99% 0.02 in 0 W/m2
03:02 49.5 °F 49.3 °F 29.6 in NNW 0.7 mph 3.1 mph 99% 0.02 in 0 W/m2
03:07 49.5 °F 49.3 °F 29.6 in NNW 0.7 mph 3.1 mph 99% 0.01 in 0 W/m2
03:12 49.3 °F 48.9 °F 29.6 in Calm   2.2 mph 99% 0.01 in 0 W/m2
03:17 49.1 °F 48.7 °F 29.6 in Calm   1.6 mph 99% 0 in 0 W/m2
03:22 49.1 °F 48.7 °F 29.6 in WNW 0.7 mph 1.6 mph 99% 0 in 0 W/m2
03:27 49.1 °F 48.7 °F 29.6 in West 2.2 mph 3.8 mph 99% 0 in 0 W/m2
03:32 49.1 °F 48.7 °F 29.6 in WNW 0.7 mph 3.8 mph 99% 0 in 0 W/m2
03:37 49.1 °F 48.7 °F 29.6 in NW 0.7 mph 3.1 mph 99% 0 in 0 W/m2
03:42 49.3 °F 48.9 °F 29.6 in NNW 2.2 mph 3.1 mph 99% 0 in 0 W/m2
03:46 49.3 °F 48.9 °F 29.6 in NNW 1.6 mph 3.8 mph 99% 0 in 0 W/m2
03:51 49.3 °F 48.9 °F 29.6 in NW 2.2 mph 3.8 mph 99% 0 in 0 W/m2
03:56 49.3 °F 48.9 °F 29.6 in NW 2.2 mph 3.8 mph 99% 0 in 0 W/m2
04:01 49.3 °F 48.9 °F 29.6 in NNW 3.1 mph 3.8 mph 99% 0 in 0 W/m2
04:06 49.3 °F 48.9 °F 29.6 in NW 4.5 mph 6 mph 99% 0 in 0 W/m2
04:11 49.3 °F 48.9 °F 29.6 in NNW 3.1 mph 6 mph 99% 0 in 0 W/m2
04:16 49.3 °F 48.9 °F 29.6 in NNW 3.1 mph 6 mph 99% 0 in 0 W/m2
04:21 49.1 °F 48.7 °F 29.6 in North 0.7 mph 4.5 mph 99% 0 in 0 W/m2
04:25 49.1 °F 48.7 °F 29.6 in NNW 2.2 mph 3.8 mph 99% 0 in 0 W/m2
04:30 49.3 °F 48.9 °F 29.6 in NNW 2.2 mph 4.5 mph 99% 0 in 0 W/m2
04:35 49.3 °F 48.9 °F 29.6 in North 3.1 mph 4.5 mph 99% 0 in 0 W/m2
04:40 49.3 °F 48.9 °F 29.6 in North 1.6 mph 4.5 mph 99% 0 in 0 W/m2
04:45 49.3 °F 48.9 °F 29.6 in NNW 2.2 mph 3.8 mph 99% 0 in 0 W/m2
04:50 49.1 °F 48.7 °F 29.6 in NNW 2.2 mph 4.5 mph 99% 0 in 0 W/m2
04:55 49.3 °F 48.9 °F 29.6 in NW 3.8 mph 5.4 mph 99% 0 in 0 W/m2
05:00 49.3 °F 48.9 °F 29.6 in NW 3.8 mph 5.4 mph 99% 0 in 0 W/m2
05:05 49.5 °F 49.3 °F 29.6 in NW 3.8 mph 5.4 mph 99% 0 in 0 W/m2
05:10 49.5 °F 49.3 °F 29.6 in NW 3.1 mph 5.4 mph 99% 0 in 0 W/m2
05:15 49.5 °F 49.3 °F 29.6 in NNW 1.6 mph 5.4 mph 99% 0 in 0 W/m2
05:20 49.5 °F 49.3 °F 29.7 in NNW 3.8 mph 5.4 mph 99% 0.01 in 0 W/m2
05:25 49.5 °F 49.3 °F 29.6 in NW 2.2 mph 5.4 mph 99% 0.01 in 0 W/m2
05:30 49.5 °F 49.3 °F 29.6 in NW 2.2 mph 5.4 mph 99% 0.01 in 0 W/m2
05:35 49.5 °F 49.3 °F 29.6 in NNW 1.6 mph 3.8 mph 99% 0.01 in 0 W/m2
05:40 49.5 °F 49.3 °F 29.6 in North 0.7 mph 4.5 mph 99% 0.01 in 0 W/m2
05:45 49.5 °F 49.3 °F 29.6 in NNE 1.6 mph 4.5 mph 99% 0.01 in 0 W/m2
05:50 49.5 °F 49.3 °F 29.6 in North 2.2 mph 3.8 mph 99% 0.01 in 0 W/m2
05:55 49.3 °F 48.9 °F 29.6 in NNW 2.2 mph 3.8 mph 99% 0.01 in 0 W/m2
06:00 49.1 °F 48.7 °F 29.6 in NNW 2.2 mph 3.8 mph 99% 0.01 in 0 W/m2
06:05 49.1 °F 48.7 °F 29.6 in NNW 3.1 mph 6 mph 99% 0.01 in 0 W/m2
06:10 48.9 °F 48.7 °F 29.6 in North 1.6 mph 6 mph 99% 0.01 in 0 W/m2
06:15 48.6 °F 48.4 °F 29.6 in NNW 3.1 mph 5.4 mph 99% 0.01 in 0 W/m2
06:20 48.4 °F 48 °F 29.6 in NNW 2.2 mph 4.5 mph 99% 0 in 0 W/m2
06:25 48.2 °F 47.8 °F 29.6 in North 2.2 mph 4.5 mph 99% 0 in 0 W/m2
06:30 48 °F 47.8 °F 29.6 in North 2.2 mph 4.5 mph 99% 0 in 0 W/m2
06:35 47.8 °F 47.7 °F 29.6 in North 3.1 mph 5.4 mph 99% 0 in 0 W/m2
06:40 47.8 °F 47.7 °F 29.6 in North 5.4 mph 7.6 mph 99% 0 in 0 W/m2
06:45 47.7 °F 47.5 °F 29.6 in North 3.8 mph 7.6 mph 99% 0 in 0 W/m2
06:50 47.7 °F 47.5 °F 29.6 in NNW 2.2 mph 6.9 mph 99% 0 in 0 W/m2
06:55 47.8 °F 47.7 °F 29.6 in NNW 3.1 mph 6.9 mph 99% 0 in 0 W/m2
07:00 47.8 °F 47.7 °F 29.6 in North 3.1 mph 6 mph 99% 0 in 0 W/m2
07:05 48 °F 47.8 °F 29.6 in North 3.8 mph 6 mph 99% 0 in 0 W/m2
07:10 48 °F 47.8 °F 29.6 in North 4.5 mph 6 mph 99% 0 in 0 W/m2
07:15 48.2 °F 47.8 °F 29.6 in North 3.1 mph 6 mph 99% 0 in 0 W/m2
07:20 48.2 °F 47.8 °F 29.6 in North 3.8 mph 6 mph 99% 0 in 0 W/m2
07:25 48.4 °F 48 °F 29.6 in NNW 3.1 mph 6 mph 99% 0 in 0 W/m2
07:30 48.2 °F 47.8 °F 29.6 in NNW 2.2 mph 6 mph 99% 0 in 1 W/m2
07:35 48.2 °F 47.8 °F 29.7 in NNW 3.8 mph 5.4 mph 99% 0 in 6 W/m2
07:40 48.2 °F 47.8 °F 29.7 in NNW 4.5 mph 6 mph 99% 0 in 10 W/m2
07:45 48.2 °F 47.8 °F 29.7 in NNW 4.5 mph 7.6 mph 99% 0 in 12 W/m2
07:50 48.4 °F 48 °F 29.7 in NW 3.8 mph 7.6 mph 99% 0 in 40 W/m2
07:55 48.6 °F 48.4 °F 29.7 in NNW 3.8 mph 6.9 mph 99% 0 in 37 W/m2
08:00 48.4 °F 48 °F 29.7 in NNW 3.8 mph 6.9 mph 99% 0 in 17 W/m2
08:05 48.2 °F 47.8 °F 29.7 in North 3.8 mph 6.9 mph 99% 0 in 19 W/m2
08:10 48.2 °F 47.8 °F 29.7 in NNW 3.1 mph 7.6 mph 99% 0 in 79 W/m2
08:15 48.7 °F 48.6 °F 29.7 in NNW 3.8 mph 7.6 mph 99% 0 in 106 W/m2
08:20 49.5 °F 49.3 °F 29.7 in NNW 3.8 mph 6.9 mph 99% 0 in 118 W/m2
08:25 49.6 °F 49.5 °F 29.7 in NNW 5.4 mph 7.6 mph 99% 0 in 131 W/m2
08:30 50 °F 49.6 °F 29.7 in NNW 3.8 mph 7.6 mph 99% 0 in 142 W/m2
08:36 50.4 °F 50.2 °F 29.7 in NW 5.4 mph 8.3 mph 99% 0 in 152 W/m2
08:41 50.5 °F 50.4 °F 29.7 in NNW 4.5 mph 8.3 mph 99% 0 in 151 W/m2
08:46 50.5 °F 50.4 °F 29.7 in NNW 3.8 mph 8.3 mph 99% 0 in 96 W/m2
08:51 50.4 °F 49.8 °F 29.7 in NNW 3.8 mph 7.6 mph 98% 0 in 80 W/m2
08:56 50 °F 49.3 °F 29.7 in NNW 3.1 mph 7.6 mph 97% 0 in 35 W/m2
09:01 49.8 °F 49.3 °F 29.7 in NNW 3.8 mph 7.6 mph 98% 0 in 40 W/m2
09:06 49.8 °F 49.3 °F 29.7 in NNW 4.5 mph 7.6 mph 98% 0 in 96 W/m2
09:11 50.4 °F 49.5 °F 29.7 in NNW 6.9 mph 8.3 mph 97% 0 in 135 W/m2
09:16 50.9 °F 50.2 °F 29.7 in NNW 5.4 mph 9.8 mph 97% 0 in 99 W/m2
09:21 50.7 °F 49.6 °F 29.7 in NNW 3.1 mph 9.8 mph 96% 0 in 46 W/m2
09:26 50.7 °F 49.3 °F 29.7 in NNW 3.1 mph 9.2 mph 95% 0 in 42 W/m2
09:31 50.5 °F 49.3 °F 29.7 in North 3.8 mph 7.6 mph 95% 0 in 48 W/m2
09:36 50.7 °F 49.3 °F 29.7 in North 2.2 mph 8.3 mph 95% 0 in 113 W/m2
09:41 50.9 °F 49.5 °F 29.7 in North 3.8 mph 8.3 mph 95% 0 in 95 W/m2
09:46 51.6 °F 50.2 °F 29.7 in North 3.1 mph 8.3 mph 95% 0 in 154 W/m2
09:51 52.9 °F 50.9 °F 29.7 in North 3.8 mph 7.6 mph 93% 0 in 121 W/m2
09:56 53.8 °F 50.5 °F 29.7 in North 5.4 mph 8.3 mph 89% 0 in 99 W/m2
10:01 53.8 °F 50 °F 29.7 in North 3.1 mph 8.3 mph 87% 0 in 80 W/m2
10:06 54.7 °F 50.5 °F 29.7 in North 3.8 mph 8.3 mph 86% 0 in 80 W/m2
10:11 55.4 °F 51.1 °F 29.7 in North 5.4 mph 7.6 mph 85% 0 in 76 W/m2
10:14 55.8 °F 51.3 °F 29.7 in North 3.8 mph 7.6 mph 85% 0 in 75 W/m2
10:19 56.3 °F 51.4 °F 29.7 in North 3.8 mph 8.3 mph 84% 0 in 96 W/m2
10:24 56.3 °F 50.5 °F 29.7 in North 4.5 mph 9.2 mph 81% 0 in 104 W/m2
10:29 56.1 °F 50 °F 29.7 in North 3.8 mph 9.2 mph 80% 0 in 80 W/m2
10:34 55.6 °F 49.8 °F 29.7 in North 4.5 mph 10.7 mph 81% 0 in 75 W/m2
10:50 55.4 °F 50.7 °F 29.7 in NNW 4.5 mph 9.2 mph 84% 0 in 67 W/m2
10:55 55.8 °F 50.7 °F 29.7 in NNW 3.8 mph 9.2 mph 83% 0 in 69 W/m2
11:00 56.1 °F 51.1 °F 29.7 in North 4.5 mph 8.3 mph 83% 0 in 93 W/m2
11:05 56.5 °F 51.4 °F 29.7 in North 5.4 mph 8.3 mph 83% 0 in 71 W/m2
11:10 56.8 °F 51.1 °F 29.7 in North 5.4 mph 8.3 mph 81% 0 in 49 W/m2
11:15 57.6 °F 51.1 °F 29.7 in NNW 3.8 mph 8.3 mph 79% 0 in 60 W/m2
11:20 58.6 °F 52.2 °F 29.7 in NNW 6 mph 7.6 mph 79% 0 in 87 W/m2
11:25 59 °F 51.4 °F 29.7 in NNW 4.5 mph 7.6 mph 76% 0 in 84 W/m2
11:30 59.4 °F 51.1 °F 29.7 in NNW 5.4 mph 7.6 mph 74% 0 in 67 W/m2
11:35 59.5 °F 50.5 °F 29.7 in NNW 3.8 mph 7.6 mph 72% 0 in 58 W/m2
11:40 60.4 °F 51.4 °F 29.7 in NW 6 mph 8.3 mph 72% 0 in 60 W/m2
11:45 60.6 °F 49.3 °F 29.7 in NW 6 mph 13 mph 66% 0 in 79 W/m2
11:50 60.1 °F 48.4 °F 29.7 in NW 6.9 mph 13 mph 65% 0 in 81 W/m2
11:55 59.2 °F 47.8 °F 29.7 in NW 6 mph 10.7 mph 66% 0 in 95 W/m2
12:00 58.5 °F 47.8 °F 29.7 in NW 5.4 mph 10.7 mph 68% 0 in 76 W/m2
12:05 58.5 °F 48.4 °F 29.7 in NW 3.1 mph 9.8 mph 69% 0 in 68 W/m2
12:10 58.5 °F 47.8 °F 29.7 in NW 6.9 mph 13.6 mph 68% 0.01 in 65 W/m2
12:16 59.4 °F 48.4 °F 29.7 in NW 6 mph 13.6 mph 67% 0.01 in 65 W/m2
12:21 58.8 °F 48.4 °F 29.7 in WNW 3.1 mph 9.8 mph 68% 0.01 in 72 W/m2
12:26 59 °F 48.6 °F 29.7 in WNW 7.6 mph 9.2 mph 68% 0.01 in 88 W/m2
12:31 59.7 °F 48.4 °F 29.7 in NW 4.5 mph 9.8 mph 66% 0.01 in 87 W/m2
12:36 59.5 °F 47.8 °F 29.7 in NW 4.5 mph 9.8 mph 65% 0.01 in 68 W/m2
12:41 59.4 °F 48 °F 29.7 in NW 5.4 mph 8.3 mph 66% 0.01 in 70 W/m2
12:47 59.2 °F 47.8 °F 29.7 in NW 3.1 mph 8.3 mph 66% 0.01 in 72 W/m2
12:52 58.8 °F 48.4 °F 29.7 in NW 3.1 mph 6.9 mph 68% 0.01 in 74 W/m2
12:57 58.5 °F 47.8 °F 29.7 in NW 2.2 mph 6 mph 68% 0.01 in 86 W/m2
13:02 58.5 °F 48.4 °F 29.7 in NW 3.1 mph 5.4 mph 69% 0.01 in 95 W/m2
13:07 58.5 °F 48.4 °F 29.7 in WNW 1.6 mph 5.4 mph 69% 0.01 in 98 W/m2
13:12 58.5 °F 48.7 °F 29.7 in WNW 1.6 mph 5.4 mph 70% 0 in 92 W/m2
13:15 58.6 °F 48.9 °F 29.7 in West 2.2 mph 5.4 mph 70% 0 in 92 W/m2
13:20 58.8 °F 49.1 °F 29.7 in WSW 4.5 mph 6.9 mph 70% 0 in 96 W/m2
13:25 58.3 °F 51.1 °F 29.7 in SW 3.8 mph 6.9 mph 77% 0 in 81 W/m2
13:30 57.7 °F 51.6 °F 29.7 in SSW 3.8 mph 6.9 mph 80% 0 in 83 W/m2
13:35 57.2 °F 51.8 °F 29.7 in South 3.8 mph 6 mph 82% 0 in 88 W/m2
13:40 56.7 °F 51.6 °F 29.7 in South 3.1 mph 6 mph 83% 0 in 99 W/m2
13:45 57.4 °F 52 °F 29.7 in South 3.1 mph 5.4 mph 82% 0 in 104 W/m2
13:50 58.5 °F 52.3 °F 29.7 in South 2.2 mph 5.4 mph 80% 0 in 113 W/m2
13:55 59.4 °F 52.2 °F 29.7 in South 4.5 mph 6 mph 77% 0 in 118 W/m2
14:00 58.8 °F 51.3 °F 29.7 in South 4.5 mph 6 mph 76% 0 in 105 W/m2
14:05 59.2 °F 51.3 °F 29.7 in South 3.1 mph 7.6 mph 75% 0 in 96 W/m2
14:08 59.4 °F 51.4 °F 29.7 in South 3.8 mph 7.6 mph 75% 0 in 177 W/m2
14:13 60.3 °F 52 °F 29.7 in South 3.8 mph 7.6 mph 74% 0 in 231 W/m2
14:18 60.3 °F 52 °F 29.7 in SSW 5.4 mph 8.3 mph 74% 0 in 275 W/m2
14:23 60.3 °F 52 °F 29.7 in South 4.5 mph 8.3 mph 74% 0 in 209 W/m2
14:28 60.4 °F 52.5 °F 29.7 in South 4.5 mph 7.6 mph 75% 0 in 72 W/m2
14:33 59 °F 51.4 °F 29.7 in South 3.8 mph 7.6 mph 76% 0 in 52 W/m2
14:38 57.7 °F 51.3 °F 29.7 in SSW 4.5 mph 7.6 mph 79% 0 in 39 W/m2
14:43 56.7 °F 51.3 °F 29.7 in SSW 3.1 mph 7.6 mph 82% 0 in 58 W/m2
14:48 57.9 °F 52.9 °F 29.7 in South 3.8 mph 7.6 mph 83% 0 in 168 W/m2
14:53 58.8 °F 53.1 °F 29.7 in South 3.1 mph 6.9 mph 81% 0 in 79 W/m2
14:58 57.7 °F 51.6 °F 29.7 in SSE 3.8 mph 7.6 mph 80% 0 in 66 W/m2
15:03 57.4 °F 52 °F 29.7 in SSE 3.1 mph 7.6 mph 82% 0 in 85 W/m2
15:08 59 °F 53.4 °F 29.7 in South 1.6 mph 6.9 mph 82% 0 in 218 W/m2
15:13 61.9 °F 54.7 °F 29.7 in SSE 3.1 mph 6 mph 77% 0 in 216 W/m2
15:18 61.3 °F 52.5 °F 29.7 in South 3.8 mph 6.9 mph 73% 0 in 82 W/m2
15:23 59.4 °F 51.8 °F 29.7 in SSE 3.8 mph 7.6 mph 76% 0 in 73 W/m2
15:28 58.1 °F 51.6 °F 29.7 in SSE 3.8 mph 7.6 mph 79% 0 in 71 W/m2
15:33 57.7 °F 52 °F 29.7 in SSE 0.7 mph 6 mph 81% 0 in 52 W/m2
15:38 57.2 °F 51.8 °F 29.7 in South 3.1 mph 6 mph 82% 0 in 51 W/m2
15:43 57 °F 52.5 °F 29.7 in South 2.2 mph 6 mph 85% 0 in 52 W/m2
15:48 57 °F 52.5 °F 29.7 in SSE 2.2 mph 5.4 mph 85% 0 in 59 W/m2
15:53 56.7 °F 52.2 °F 29.7 in SE 2.2 mph 4.5 mph 85% 0 in 58 W/m2
15:58 56.7 °F 52.2 °F 29.7 in SE 1.6 mph 4.5 mph 85% 0 in 57 W/m2
16:03 56.7 °F 52.2 °F 29.7 in SSE 1.6 mph 5.4 mph 85% 0 in 50 W/m2
16:08 56.7 °F 52.2 °F 29.7 in SSE 1.6 mph 6 mph 85% 0 in 39 W/m2
16:13 56.5 °F 52.3 °F 29.7 in SE 1.6 mph 6 mph 86% 0 in 29 W/m2
16:18 56.3 °F 52.2 °F 29.7 in SE 3.1 mph 4.5 mph 86% 0 in 23 W/m2
16:23 56.1 °F 52 °F 29.7 in SE 0.7 mph 4.5 mph 86% 0 in 21 W/m2
16:28 56.3 °F 52.2 °F 29.7 in SE 1.6 mph 4.5 mph 86% 0 in 24 W/m2
16:33 56.5 °F 52.3 °F 29.7 in SSE 0.7 mph 5.4 mph 86% 0 in 17 W/m2
16:38 56.3 °F 52.2 °F 29.7 in SSE 1.6 mph 5.4 mph 86% 0 in 13 W/m2
16:43 55.9 °F 51.8 °F 29.7 in SSE 1.6 mph 3.8 mph 86% 0 in 9 W/m2
16:48 55.6 °F 51.4 °F 29.7 in SSE 3.1 mph 3.8 mph 86% 0 in 5 W/m2
16:53 55.2 °F 51.4 °F 29.7 in SSE 2.2 mph 4.5 mph 87% 0 in 2 W/m2
16:58 55 °F 51.3 °F 29.7 in South 3.1 mph 4.5 mph 87% 0 in 0 W/m2
17:03 54.7 °F 51.3 °F 29.7 in South 2.2 mph 6 mph 88% 0 in 0 W/m2
17:08 54.5 °F 51.3 °F 29.7 in SSE 3.1 mph 6 mph 89% 0 in 0 W/m2
17:13 54.3 °F 51.3 °F 29.7 in SSE 2.2 mph 4.5 mph 89% 0 in 0 W/m2
17:18 54.1 °F 51.3 °F 29.7 in South 2.2 mph 4.5 mph 90% 0 in 0 W/m2
17:23 54.1 °F 51.3 °F 29.7 in Calm   3.8 mph 90% 0 in 0 W/m2
17:28 54 °F 51.1 °F 29.7 in Calm   3.1 mph 90% 0 in 0 W/m2
17:33 53.6 °F 50.7 °F 29.7 in Calm   2.2 mph 90% 0 in 0 W/m2
17:38 53.6 °F 50.7 °F 29.7 in Calm   1.6 mph 90% 0 in 0 W/m2
17:43 53.6 °F 51.1 °F 29.7 in South 2.2 mph 4.5 mph 91% 0 in 0 W/m2
17:48 53.8 °F 51.4 °F 29.7 in South 1.6 mph 4.5 mph 92% 0 in 0 W/m2
17:53 54 °F 51.6 °F 29.7 in SSE 1.6 mph 4.5 mph 92% 0 in 0 W/m2
17:58 54.1 °F 52 °F 29.7 in South 1.6 mph 5.4 mph 92% 0 in 0 W/m2
18:03 54.3 °F 52.2 °F 29.7 in SSE 3.1 mph 6 mph 92% 0 in 0 W/m2
18:08 54.5 °F 52 °F 29.7 in South 3.1 mph 6 mph 91% 0 in 0 W/m2
18:13 54.5 °F 52 °F 29.7 in South 1.6 mph 5.4 mph 91% 0 in 0 W/m2
18:18 54.7 °F 52.2 °F 29.7 in SSE 3.8 mph 5.4 mph 91% 0 in 0 W/m2
18:23 54.7 °F 51.8 °F 29.7 in SSE 3.1 mph 6.9 mph 90% 0 in 0 W/m2
18:28 54.9 °F 51.6 °F 29.8 in SSE 3.1 mph 7.6 mph 89% 0 in 0 W/m2
18:33 54.9 °F 51.6 °F 29.8 in South 3.8 mph 7.6 mph 89% 0 in 0 W/m2
18:43 55 °F 51.3 °F 29.8 in South 7.6 mph 11.4 mph 87% 0 in 0 W/m2
18:48 55 °F 51.3 °F 29.8 in South 3.8 mph 11.4 mph 87% 0 in 0 W/m2
18:58 55 °F 51.6 °F 29.8 in South 5.4 mph 9.8 mph 88% 0 in 0 W/m2
19:03 55 °F 51.6 °F 29.8 in SSE 3.8 mph 9.8 mph 88% 0 in 0 W/m2
19:08 54.9 °F 51.4 °F 29.8 in South 6.9 mph 9.8 mph 88% 0 in 0 W/m2
19:13 54.9 °F 51.1 °F 29.8 in South 6.9 mph 8.3 mph 87% 0 in 0 W/m2
19:18 55 °F 51.3 °F 29.8 in SSE 4.5 mph 10.7 mph 87% 0 in 0 W/m2
19:23 55 °F 51.3 °F 29.8 in South 7.6 mph 10.7 mph 87% 0 in 0 W/m2
19:28 55 °F 51.3 °F 29.8 in South 5.4 mph 11.4 mph 87% 0 in 0 W/m2
19:33 54.9 °F 50.7 °F 29.8 in South 6 mph 11.4 mph 86% 0 in 0 W/m2
19:38 54.9 °F 50.7 °F 29.8 in SSE 6.9 mph 12.1 mph 86% 0 in 0 W/m2
19:43 54.9 °F 50.4 °F 29.8 in SSE 7.6 mph 15.2 mph 85% 0 in 0 W/m2
19:48 54.9 °F 50.4 °F 29.8 in South 6.9 mph 15.2 mph 85% 0 in 0 W/m2
19:53 54.9 °F 50.4 °F 29.8 in South 5.4 mph 12.1 mph 85% 0 in 0 W/m2
19:58 54.9 °F 50.7 °F 29.8 in South 6.9 mph 11.4 mph 86% 0 in 0 W/m2
20:03 54.7 °F 50.5 °F 29.8 in South 5.4 mph 11.4 mph 86% 0 in 0 W/m2
20:08 54.9 °F 50.7 °F 29.8 in South 5.4 mph 11.4 mph 86% 0 in 0 W/m2
20:13 54.9 °F 50.4 °F 29.8 in South 4.5 mph 13.6 mph 85% 0 in 0 W/m2
20:18 54.7 °F 50.4 °F 29.8 in South 6 mph 13.6 mph 85% 0 in 0 W/m2
20:23 54.9 °F 50.4 °F 29.8 in South 8.3 mph 13.6 mph 85% 0 in 0 W/m2
20:28 54.9 °F 50.4 °F 29.8 in South 5.4 mph 13.6 mph 85% 0 in 0 W/m2
20:33 54.7 °F 50.4 °F 29.8 in SSE 6.9 mph 14.5 mph 85% 0 in 0 W/m2
20:38 54.7 °F 50.4 °F 29.8 in South 6 mph 14.5 mph 85% 0 in 0 W/m2
20:43 54.7 °F 50.4 °F 29.8 in South 9.2 mph 13 mph 85% 0 in 0 W/m2
20:48 54.7 °F 50.4 °F 29.8 in South 6 mph 11.4 mph 85% 0 in 0 W/m2
20:53 54.7 °F 50.4 °F 29.8 in South 6.9 mph 11.4 mph 85% 0 in 0 W/m2
20:58 54.7 °F 50.4 °F 29.8 in South 7.6 mph 12.1 mph 85% 0 in 0 W/m2
21:03 54.5 °F 50.4 °F 29.8 in South 9.2 mph 13.6 mph 86% 0 in 0 W/m2
21:08 54.3 °F 50.2 °F 29.8 in SSW 6 mph 13.6 mph 86% 0 in 0 W/m2
21:13 54.3 °F 50.2 °F 29.8 in SSW 7.6 mph 14.5 mph 86% 0 in 0 W/m2
21:18 54.3 °F 50.2 °F 29.8 in South 6.9 mph 15.2 mph 86% 0 in 0 W/m2
21:24 54.3 °F 49.8 °F 29.8 in SSW 9.2 mph 15.2 mph 85% 0 in 0 W/m2
21:29 54.3 °F 49.8 °F 29.8 in SSW 8.3 mph 13 mph 85% 0 in 0 W/m2
21:39 54.1 °F 49.5 °F 29.8 in South 6.9 mph 12.1 mph 84% 0 in 0 W/m2
21:44 54.1 °F 49.5 °F 29.8 in SSW 6 mph 13 mph 84% 0 in 0 W/m2
21:49 54.1 °F 49.5 °F 29.8 in SSW 8.3 mph 13.6 mph 84% 0 in 0 W/m2
21:54 54.1 °F 49.5 °F 29.8 in SSW 7.6 mph 13.6 mph 84% 0 in 0 W/m2
21:59 54.1 °F 49.5 °F 29.8 in SSW 10.7 mph 13.6 mph 84% 0 in 0 W/m2
22:04 54 °F 49.3 °F 29.8 in SSW 6 mph 14.5 mph 84% 0 in 0 W/m2
22:09 54 °F 49.3 °F 29.8 in SSW 8.3 mph 14.5 mph 84% 0 in 0 W/m2
22:15 54 °F 49.3 °F 29.8 in SSW 7.6 mph 12.1 mph 84% 0 in 0 W/m2
22:20 54 °F 49.3 °F 29.8 in SSW 6 mph 12.1 mph 84% 0 in 0 W/m2
22:25 53.2 °F 49.5 °F 29.8 in SW 3.8 mph 12.1 mph 87% 0 in 0 W/m2
22:30 52.5 °F 50 °F 29.8 in SW 4.5 mph 13 mph 91% 0 in 0 W/m2
22:35 52.3 °F 50.2 °F 29.8 in SW 7.6 mph 13 mph 92% 0 in 0 W/m2
22:40 52.2 °F 50.2 °F 29.8 in SW 8.3 mph 12.1 mph 93% 0 in 0 W/m2
22:45 52 °F 50 °F 29.8 in SW 7.6 mph 13 mph 93% 0 in 0 W/m2
22:50 51.8 °F 49.8 °F 29.8 in WSW 6 mph 13 mph 93% 0 in 0 W/m2
22:56 51.6 °F 50.2 °F 29.8 in SW 9.2 mph 13 mph 95% 0 in 0 W/m2
23:01 51.4 °F 50.4 °F 29.8 in WSW 7.6 mph 13 mph 96% 0 in 0 W/m2
23:06 51.3 °F 50.2 °F 29.8 in WSW 6.9 mph 12.1 mph 96% 0 in 0 W/m2
23:11 51.3 °F 50.4 °F 29.8 in SW 7.6 mph 13.6 mph 97% 0 in 0 W/m2
23:16 51.3 °F 50.4 °F 29.8 in SW 6.9 mph 13.6 mph 97% 0 in 0 W/m2
23:21 51.1 °F 50.4 °F 29.8 in WSW 3.8 mph 11.4 mph 97% 0 in 0 W/m2
23:26 51.1 °F 50.4 °F 29.8 in West 4.5 mph 9.2 mph 97% 0 in 0 W/m2
23:31 50.9 °F 50.2 °F 29.8 in WSW 4.5 mph 6.9 mph 97% 0 in 0 W/m2
23:36 50.9 °F 49.8 °F 29.8 in West 3.8 mph 6.9 mph 96% 0 in 0 W/m2
23:41 50.9 °F 49.8 °F 29.8 in West 4.5 mph 6 mph 96% 0 in 0 W/m2
23:46 50.9 °F 49.8 °F 29.8 in WSW 4.5 mph 7.6 mph 96% 0 in 0 W/m2
23:51 50.7 °F 49.3 °F 29.8 in West 2.2 mph 7.6 mph 95% 0 in 0 W/m2
23:56 50.7 °F 49.3 °F 29.8 in WNW 3.8 mph 6.9 mph 95% 0 in 0 W/m2
Northern Hawkes Bay. New Zealand Historic Data
Compliments of Weather Underground - 2 mb